sensor_id;sensor_type;location;lat;lon;timestamp;P1;durP1;ratioP1;P2;durP2;ratioP2
76113;SDS011;64845;53.086;5.834;2023-04-25T00:00:46;17.85;;;2.97;;
76113;SDS011;64845;53.086;5.834;2023-04-25T00:03:12;27.60;;;3.70;;
76113;SDS011;64845;53.086;5.834;2023-04-25T00:05:38;16.00;;;3.10;;
76113;SDS011;64845;53.086;5.834;2023-04-25T00:08:04;17.83;;;3.47;;
76113;SDS011;64845;53.086;5.834;2023-04-25T00:10:30;19.30;;;3.35;;
76113;SDS011;64845;53.086;5.834;2023-04-25T00:12:55;15.95;;;3.22;;
76113;SDS011;64845;53.086;5.834;2023-04-25T00:15:22;24.00;;;3.80;;
76113;SDS011;64845;53.086;5.834;2023-04-25T00:17:49;18.63;;;3.15;;
76113;SDS011;64845;53.086;5.834;2023-04-25T00:20:14;14.75;;;3.20;;
76113;SDS011;64845;53.086;5.834;2023-04-25T00:22:40;15.65;;;2.80;;
76113;SDS011;64845;53.086;5.834;2023-04-25T00:25:06;17.00;;;2.85;;
76113;SDS011;64845;53.086;5.834;2023-04-25T00:27:32;17.63;;;3.22;;
76113;SDS011;64845;53.086;5.834;2023-04-25T00:29:57;16.02;;;3.22;;
76113;SDS011;64845;53.086;5.834;2023-04-25T00:32:23;14.38;;;2.88;;
76113;SDS011;64845;53.086;5.834;2023-04-25T00:34:48;24.70;;;3.30;;
76113;SDS011;64845;53.086;5.834;2023-04-25T00:37:14;25.10;;;3.00;;
76113;SDS011;64845;53.086;5.834;2023-04-25T00:39:39;19.17;;;3.20;;
76113;SDS011;64845;53.086;5.834;2023-04-25T00:42:04;18.38;;;3.30;;
76113;SDS011;64845;53.086;5.834;2023-04-25T00:44:30;12.77;;;2.47;;
76113;SDS011;64845;53.086;5.834;2023-04-25T00:46:57;21.25;;;2.90;;
76113;SDS011;64845;53.086;5.834;2023-04-25T00:49:22;18.75;;;3.42;;
76113;SDS011;64845;53.086;5.834;2023-04-25T00:51:48;15.25;;;4.05;;
76113;SDS011;64845;53.086;5.834;2023-04-25T00:54:13;15.80;;;2.42;;
76113;SDS011;64845;53.086;5.834;2023-04-25T00:56:40;17.25;;;2.88;;
76113;SDS011;64845;53.086;5.834;2023-04-25T00:59:06;11.90;;;2.08;;
76113;SDS011;64845;53.086;5.834;2023-04-25T01:01:34;14.98;;;2.80;;
76113;SDS011;64845;53.086;5.834;2023-04-25T01:04:00;12.05;;;2.60;;
76113;SDS011;64845;53.086;5.834;2023-04-25T01:06:26;11.43;;;2.53;;
76113;SDS011;64845;53.086;5.834;2023-04-25T01:08:52;23.88;;;2.65;;
76113;SDS011;64845;53.086;5.834;2023-04-25T01:11:18;6.13;;;1.83;;
76113;SDS011;64845;53.086;5.834;2023-04-25T01:13:43;12.75;;;2.05;;
76113;SDS011;64845;53.086;5.834;2023-04-25T01:16:09;14.57;;;2.60;;
76113;SDS011;64845;53.086;5.834;2023-04-25T01:18:34;16.60;;;2.33;;
76113;SDS011;64845;53.086;5.834;2023-04-25T01:21:09;20.38;;;3.10;;
76113;SDS011;64845;53.086;5.834;2023-04-25T01:23:35;13.40;;;2.33;;
76113;SDS011;64845;53.086;5.834;2023-04-25T01:26:02;19.30;;;3.08;;
76113;SDS011;64845;53.086;5.834;2023-04-25T01:28:28;20.85;;;2.78;;
76113;SDS011;64845;53.086;5.834;2023-04-25T01:30:54;17.13;;;2.58;;
76113;SDS011;64845;53.086;5.834;2023-04-25T01:33:21;16.38;;;2.85;;
76113;SDS011;64845;53.086;5.834;2023-04-25T01:35:47;18.42;;;3.30;;
76113;SDS011;64845;53.086;5.834;2023-04-25T01:38:13;15.68;;;2.05;;
76113;SDS011;64845;53.086;5.834;2023-04-25T01:40:39;18.25;;;2.78;;
76113;SDS011;64845;53.086;5.834;2023-04-25T01:43:06;18.10;;;2.55;;
76113;SDS011;64845;53.086;5.834;2023-04-25T01:45:33;15.27;;;2.60;;
76113;SDS011;64845;53.086;5.834;2023-04-25T01:47:59;10.95;;;2.35;;
76113;SDS011;64845;53.086;5.834;2023-04-25T01:50:24;12.38;;;2.22;;
76113;SDS011;64845;53.086;5.834;2023-04-25T01:52:50;9.25;;;1.70;;
76113;SDS011;64845;53.086;5.834;2023-04-25T01:55:16;11.98;;;2.13;;
76113;SDS011;64845;53.086;5.834;2023-04-25T01:57:41;8.63;;;1.77;;
76113;SDS011;64845;53.086;5.834;2023-04-25T02:00:07;7.25;;;1.65;;
76113;SDS011;64845;53.086;5.834;2023-04-25T02:02:34;11.70;;;2.08;;
76113;SDS011;64845;53.086;5.834;2023-04-25T02:05:00;10.23;;;2.10;;
76113;SDS011;64845;53.086;5.834;2023-04-25T02:07:26;11.00;;;2.20;;
76113;SDS011;64845;53.086;5.834;2023-04-25T02:09:51;16.95;;;2.55;;
76113;SDS011;64845;53.086;5.834;2023-04-25T02:12:17;8.77;;;2.25;;
76113;SDS011;64845;53.086;5.834;2023-04-25T02:14:42;4.90;;;1.20;;
76113;SDS011;64845;53.086;5.834;2023-04-25T02:17:08;7.38;;;1.23;;
76113;SDS011;64845;53.086;5.834;2023-04-25T02:19:33;5.30;;;1.40;;
76113;SDS011;64845;53.086;5.834;2023-04-25T02:21:59;5.40;;;1.20;;
76113;SDS011;64845;53.086;5.834;2023-04-25T02:24:24;10.73;;;1.70;;
76113;SDS011;64845;53.086;5.834;2023-04-25T02:26:50;7.53;;;1.60;;
76113;SDS011;64845;53.086;5.834;2023-04-25T02:29:15;3.42;;;1.30;;
76113;SDS011;64845;53.086;5.834;2023-04-25T02:31:41;3.15;;;1.20;;
76113;SDS011;64845;53.086;5.834;2023-04-25T02:34:07;11.10;;;1.80;;
76113;SDS011;64845;53.086;5.834;2023-04-25T02:36:32;5.47;;;1.10;;
76113;SDS011;64845;53.086;5.834;2023-04-25T02:38:59;7.15;;;1.40;;
76113;SDS011;64845;53.086;5.834;2023-04-25T02:41:25;8.60;;;1.88;;
76113;SDS011;64845;53.086;5.834;2023-04-25T02:43:51;8.00;;;1.48;;
76113;SDS011;64845;53.086;5.834;2023-04-25T02:46:16;7.22;;;1.60;;
76113;SDS011;64845;53.086;5.834;2023-04-25T02:48:42;12.57;;;2.40;;
76113;SDS011;64845;53.086;5.834;2023-04-25T02:51:07;9.85;;;1.75;;
76113;SDS011;64845;53.086;5.834;2023-04-25T02:53:32;10.90;;;2.05;;
76113;SDS011;64845;53.086;5.834;2023-04-25T02:55:58;17.40;;;2.08;;
76113;SDS011;64845;53.086;5.834;2023-04-25T02:58:24;8.35;;;1.70;;
76113;SDS011;64845;53.086;5.834;2023-04-25T03:00:50;13.77;;;1.90;;
76113;SDS011;64845;53.086;5.834;2023-04-25T03:03:15;13.48;;;1.98;;
76113;SDS011;64845;53.086;5.834;2023-04-25T03:05:43;18.48;;;2.60;;
76113;SDS011;64845;53.086;5.834;2023-04-25T03:08:08;8.65;;;2.00;;
76113;SDS011;64845;53.086;5.834;2023-04-25T03:10:34;14.20;;;2.25;;
76113;SDS011;64845;53.086;5.834;2023-04-25T03:12:59;9.45;;;1.90;;
76113;SDS011;64845;53.086;5.834;2023-04-25T03:15:25;9.65;;;2.00;;
76113;SDS011;64845;53.086;5.834;2023-04-25T03:17:50;14.73;;;2.50;;
76113;SDS011;64845;53.086;5.834;2023-04-25T03:20:15;10.93;;;2.47;;
76113;SDS011;64845;53.086;5.834;2023-04-25T03:22:41;10.23;;;2.13;;
76113;SDS011;64845;53.086;5.834;2023-04-25T03:25:06;11.45;;;1.85;;
76113;SDS011;64845;53.086;5.834;2023-04-25T03:27:32;15.15;;;2.50;;
76113;SDS011;64845;53.086;5.834;2023-04-25T03:29:58;9.77;;;2.33;;
76113;SDS011;64845;53.086;5.834;2023-04-25T03:32:23;13.45;;;2.08;;
76113;SDS011;64845;53.086;5.834;2023-04-25T03:34:49;11.82;;;2.15;;
76113;SDS011;64845;53.086;5.834;2023-04-25T03:37:15;12.93;;;2.65;;
76113;SDS011;64845;53.086;5.834;2023-04-25T03:39:40;9.35;;;1.80;;
76113;SDS011;64845;53.086;5.834;2023-04-25T03:42:05;19.00;;;2.15;;
76113;SDS011;64845;53.086;5.834;2023-04-25T03:44:31;11.90;;;2.63;;
76113;SDS011;64845;53.086;5.834;2023-04-25T03:46:56;17.98;;;2.78;;
76113;SDS011;64845;53.086;5.834;2023-04-25T03:49:21;15.75;;;2.00;;
76113;SDS011;64845;53.086;5.834;2023-04-25T03:51:47;16.30;;;2.08;;
76113;SDS011;64845;53.086;5.834;2023-04-25T03:54:12;11.20;;;1.85;;
76113;SDS011;64845;53.086;5.834;2023-04-25T03:56:37;13.43;;;2.20;;
76113;SDS011;64845;53.086;5.834;2023-04-25T03:59:03;10.25;;;2.08;;
76113;SDS011;64845;53.086;5.834;2023-04-25T04:01:28;11.35;;;1.83;;
76113;SDS011;64845;53.086;5.834;2023-04-25T04:03:54;8.77;;;1.92;;
76113;SDS011;64845;53.086;5.834;2023-04-25T04:06:19;15.70;;;2.00;;
76113;SDS011;64845;53.086;5.834;2023-04-25T04:08:45;9.43;;;1.80;;
76113;SDS011;64845;53.086;5.834;2023-04-25T04:11:11;10.88;;;2.53;;
76113;SDS011;64845;53.086;5.834;2023-04-25T04:13:37;12.93;;;2.15;;
76113;SDS011;64845;53.086;5.834;2023-04-25T04:16:02;10.88;;;1.77;;
76113;SDS011;64845;53.086;5.834;2023-04-25T04:18:29;6.18;;;1.63;;
76113;SDS011;64845;53.086;5.834;2023-04-25T04:20:54;13.60;;;1.95;;
76113;SDS011;64845;53.086;5.834;2023-04-25T04:23:20;13.20;;;2.63;;
76113;SDS011;64845;53.086;5.834;2023-04-25T04:25:46;10.75;;;1.80;;
76113;SDS011;64845;53.086;5.834;2023-04-25T04:28:12;12.88;;;1.88;;
76113;SDS011;64845;53.086;5.834;2023-04-25T04:30:38;16.10;;;1.95;;
76113;SDS011;64845;53.086;5.834;2023-04-25T04:33:04;14.75;;;2.30;;
76113;SDS011;64845;53.086;5.834;2023-04-25T04:35:29;9.15;;;1.80;;
76113;SDS011;64845;53.086;5.834;2023-04-25T04:37:55;14.10;;;1.98;;
76113;SDS011;64845;53.086;5.834;2023-04-25T04:40:21;12.10;;;1.83;;
76113;SDS011;64845;53.086;5.834;2023-04-25T04:42:46;10.68;;;2.28;;
76113;SDS011;64845;53.086;5.834;2023-04-25T04:45:13;13.10;;;2.17;;
76113;SDS011;64845;53.086;5.834;2023-04-25T04:47:39;8.70;;;1.80;;
76113;SDS011;64845;53.086;5.834;2023-04-25T04:50:08;12.05;;;2.15;;
76113;SDS011;64845;53.086;5.834;2023-04-25T04:52:35;11.50;;;1.92;;
76113;SDS011;64845;53.086;5.834;2023-04-25T04:55:01;11.15;;;1.80;;
76113;SDS011;64845;53.086;5.834;2023-04-25T04:57:28;7.35;;;1.67;;
76113;SDS011;64845;53.086;5.834;2023-04-25T04:59:54;12.55;;;2.50;;
76113;SDS011;64845;53.086;5.834;2023-04-25T05:02:19;10.55;;;2.13;;
76113;SDS011;64845;53.086;5.834;2023-04-25T05:04:44;11.15;;;2.10;;
76113;SDS011;64845;53.086;5.834;2023-04-25T05:07:10;8.95;;;1.83;;
76113;SDS011;64845;53.086;5.834;2023-04-25T05:09:36;10.30;;;1.80;;
76113;SDS011;64845;53.086;5.834;2023-04-25T05:12:01;9.68;;;1.77;;
76113;SDS011;64845;53.086;5.834;2023-04-25T05:14:27;6.13;;;1.70;;
76113;SDS011;64845;53.086;5.834;2023-04-25T05:16:52;10.52;;;1.83;;
76113;SDS011;64845;53.086;5.834;2023-04-25T05:19:17;10.18;;;1.85;;
76113;SDS011;64845;53.086;5.834;2023-04-25T05:21:43;9.45;;;2.05;;
76113;SDS011;64845;53.086;5.834;2023-04-25T05:24:08;9.95;;;1.75;;
76113;SDS011;64845;53.086;5.834;2023-04-25T05:26:34;8.82;;;1.65;;
76113;SDS011;64845;53.086;5.834;2023-04-25T05:28:59;7.85;;;1.60;;
76113;SDS011;64845;53.086;5.834;2023-04-25T05:31:25;10.65;;;2.08;;
76113;SDS011;64845;53.086;5.834;2023-04-25T05:33:51;15.48;;;2.22;;
76113;SDS011;64845;53.086;5.834;2023-04-25T05:36:17;6.90;;;2.00;;
76113;SDS011;64845;53.086;5.834;2023-04-25T05:38:43;9.00;;;1.95;;
76113;SDS011;64845;53.086;5.834;2023-04-25T05:41:18;7.43;;;1.50;;
76113;SDS011;64845;53.086;5.834;2023-04-25T05:44:11;6.53;;;1.25;;
76113;SDS011;64845;53.086;5.834;2023-04-25T05:46:36;11.88;;;1.48;;
76113;SDS011;64845;53.086;5.834;2023-04-25T05:49:02;10.82;;;1.70;;
76113;SDS011;64845;53.086;5.834;2023-04-25T05:51:27;6.03;;;1.38;;
76113;SDS011;64845;53.086;5.834;2023-04-25T05:53:52;5.97;;;2.28;;
76113;SDS011;64845;53.086;5.834;2023-04-25T05:56:18;11.52;;;1.80;;
76113;SDS011;64845;53.086;5.834;2023-04-25T05:58:43;10.13;;;2.05;;
76113;SDS011;64845;53.086;5.834;2023-04-25T06:01:09;8.48;;;1.70;;
76113;SDS011;64845;53.086;5.834;2023-04-25T06:03:34;13.65;;;1.52;;
76113;SDS011;64845;53.086;5.834;2023-04-25T06:06:00;11.80;;;2.35;;
76113;SDS011;64845;53.086;5.834;2023-04-25T06:08:25;9.32;;;1.60;;
76113;SDS011;64845;53.086;5.834;2023-04-25T06:10:50;4.50;;;1.35;;
76113;SDS011;64845;53.086;5.834;2023-04-25T06:13:16;8.32;;;1.83;;
76113;SDS011;64845;53.086;5.834;2023-04-25T06:15:41;5.43;;;1.25;;
76113;SDS011;64845;53.086;5.834;2023-04-25T06:18:07;8.45;;;2.10;;
76113;SDS011;64845;53.086;5.834;2023-04-25T06:20:32;7.40;;;1.55;;
76113;SDS011;64845;53.086;5.834;2023-04-25T06:22:57;4.90;;;1.35;;
76113;SDS011;64845;53.086;5.834;2023-04-25T06:25:23;6.28;;;1.25;;
76113;SDS011;64845;53.086;5.834;2023-04-25T06:27:48;8.10;;;1.15;;
76113;SDS011;64845;53.086;5.834;2023-04-25T06:30:14;9.02;;;1.58;;
76113;SDS011;64845;53.086;5.834;2023-04-25T06:32:40;10.82;;;1.83;;
76113;SDS011;64845;53.086;5.834;2023-04-25T06:35:05;7.30;;;1.33;;
76113;SDS011;64845;53.086;5.834;2023-04-25T06:37:31;7.93;;;1.60;;
76113;SDS011;64845;53.086;5.834;2023-04-25T06:39:56;9.95;;;1.58;;
76113;SDS011;64845;53.086;5.834;2023-04-25T06:42:22;8.63;;;1.88;;
76113;SDS011;64845;53.086;5.834;2023-04-25T06:44:47;10.60;;;1.90;;
76113;SDS011;64845;53.086;5.834;2023-04-25T06:47:13;7.30;;;1.50;;
76113;SDS011;64845;53.086;5.834;2023-04-25T06:49:39;8.68;;;1.55;;
76113;SDS011;64845;53.086;5.834;2023-04-25T06:52:04;7.10;;;1.60;;
76113;SDS011;64845;53.086;5.834;2023-04-25T06:54:30;13.60;;;1.83;;
76113;SDS011;64845;53.086;5.834;2023-04-25T06:56:55;8.57;;;1.58;;
76113;SDS011;64845;53.086;5.834;2023-04-25T06:59:21;7.40;;;1.70;;
76113;SDS011;64845;53.086;5.834;2023-04-25T07:01:46;10.40;;;1.92;;
76113;SDS011;64845;53.086;5.834;2023-04-25T07:04:12;14.00;;;1.85;;
76113;SDS011;64845;53.086;5.834;2023-04-25T07:06:37;12.43;;;1.65;;
76113;SDS011;64845;53.086;5.834;2023-04-25T07:09:10;13.15;;;1.67;;
76113;SDS011;64845;53.086;5.834;2023-04-25T07:11:36;9.50;;;1.40;;
76113;SDS011;64845;53.086;5.834;2023-04-25T07:14:02;6.30;;;1.23;;
76113;SDS011;64845;53.086;5.834;2023-04-25T07:16:27;8.93;;;1.75;;
76113;SDS011;64845;53.086;5.834;2023-04-25T07:18:53;4.03;;;1.23;;
76113;SDS011;64845;53.086;5.834;2023-04-25T07:21:18;9.50;;;1.10;;
76113;SDS011;64845;53.086;5.834;2023-04-25T07:23:44;5.20;;;1.08;;
76113;SDS011;64845;53.086;5.834;2023-04-25T07:26:09;6.60;;;1.55;;
76113;SDS011;64845;53.086;5.834;2023-04-25T07:28:35;7.05;;;1.45;;
76113;SDS011;64845;53.086;5.834;2023-04-25T07:31:00;4.60;;;1.00;;
76113;SDS011;64845;53.086;5.834;2023-04-25T07:33:26;4.82;;;1.13;;
76113;SDS011;64845;53.086;5.834;2023-04-25T07:35:52;11.02;;;1.70;;
76113;SDS011;64845;53.086;5.834;2023-04-25T07:38:18;11.43;;;1.75;;
76113;SDS011;64845;53.086;5.834;2023-04-25T07:40:43;8.07;;;1.70;;
76113;SDS011;64845;53.086;5.834;2023-04-25T07:43:08;10.80;;;1.38;;
76113;SDS011;64845;53.086;5.834;2023-04-25T07:45:34;9.52;;;1.75;;
76113;SDS011;64845;53.086;5.834;2023-04-25T07:47:59;5.82;;;1.65;;
76113;SDS011;64845;53.086;5.834;2023-04-25T07:50:25;9.23;;;1.75;;
76113;SDS011;64845;53.086;5.834;2023-04-25T07:52:50;4.28;;;1.13;;
76113;SDS011;64845;53.086;5.834;2023-04-25T07:55:15;7.70;;;1.30;;
76113;SDS011;64845;53.086;5.834;2023-04-25T07:57:41;4.75;;;1.27;;
76113;SDS011;64845;53.086;5.834;2023-04-25T08:00:06;10.88;;;1.67;;
76113;SDS011;64845;53.086;5.834;2023-04-25T08:02:34;7.32;;;1.90;;
76113;SDS011;64845;53.086;5.834;2023-04-25T08:05:01;8.43;;;1.38;;
76113;SDS011;64845;53.086;5.834;2023-04-25T08:07:26;6.03;;;1.23;;
76113;SDS011;64845;53.086;5.834;2023-04-25T08:09:52;9.43;;;1.40;;
76113;SDS011;64845;53.086;5.834;2023-04-25T08:12:18;7.25;;;1.20;;
76113;SDS011;64845;53.086;5.834;2023-04-25T08:14:44;7.60;;;1.58;;
76113;SDS011;64845;53.086;5.834;2023-04-25T08:17:09;9.57;;;1.40;;
76113;SDS011;64845;53.086;5.834;2023-04-25T08:19:34;5.80;;;1.35;;
76113;SDS011;64845;53.086;5.834;2023-04-25T08:22:00;7.35;;;1.33;;
76113;SDS011;64845;53.086;5.834;2023-04-25T08:24:26;10.98;;;1.40;;
76113;SDS011;64845;53.086;5.834;2023-04-25T08:26:51;6.68;;;1.45;;
76113;SDS011;64845;53.086;5.834;2023-04-25T08:29:16;10.50;;;1.92;;
76113;SDS011;64845;53.086;5.834;2023-04-25T08:31:42;8.70;;;1.60;;
76113;SDS011;64845;53.086;5.834;2023-04-25T08:34:07;4.22;;;1.33;;
76113;SDS011;64845;53.086;5.834;2023-04-25T08:36:33;9.32;;;1.67;;
76113;SDS011;64845;53.086;5.834;2023-04-25T08:38:58;7.53;;;1.67;;
76113;SDS011;64845;53.086;5.834;2023-04-25T08:41:24;8.23;;;1.70;;
76113;SDS011;64845;53.086;5.834;2023-04-25T08:43:50;16.83;;;2.00;;
76113;SDS011;64845;53.086;5.834;2023-04-25T08:46:19;11.70;;;2.47;;
76113;SDS011;64845;53.086;5.834;2023-04-25T08:48:45;9.07;;;1.90;;
76113;SDS011;64845;53.086;5.834;2023-04-25T08:51:22;11.95;;;1.90;;
76113;SDS011;64845;53.086;5.834;2023-04-25T08:53:52;16.70;;;2.10;;
76113;SDS011;64845;53.086;5.834;2023-04-25T08:56:18;11.63;;;1.95;;
76113;SDS011;64845;53.086;5.834;2023-04-25T08:58:50;10.13;;;1.70;;
76113;SDS011;64845;53.086;5.834;2023-04-25T09:01:15;10.93;;;1.90;;
76113;SDS011;64845;53.086;5.834;2023-04-25T09:03:42;16.52;;;2.33;;
76113;SDS011;64845;53.086;5.834;2023-04-25T09:06:09;9.20;;;1.60;;
76113;SDS011;64845;53.086;5.834;2023-04-25T09:08:36;8.65;;;2.05;;
76113;SDS011;64845;53.086;5.834;2023-04-25T09:11:02;10.93;;;1.90;;
76113;SDS011;64845;53.086;5.834;2023-04-25T09:13:28;5.35;;;1.38;;
76113;SDS011;64845;53.086;5.834;2023-04-25T09:15:55;11.65;;;2.17;;
76113;SDS011;64845;53.086;5.834;2023-04-25T09:18:29;8.88;;;1.65;;
76113;SDS011;64845;53.086;5.834;2023-04-25T09:20:58;10.32;;;1.77;;
76113;SDS011;64845;53.086;5.834;2023-04-25T09:26:19;9.20;;;1.63;;
76113;SDS011;64845;53.086;5.834;2023-04-25T09:28:45;6.97;;;1.55;;
76113;SDS011;64845;53.086;5.834;2023-04-25T09:31:20;6.63;;;1.40;;
76113;SDS011;64845;53.086;5.834;2023-04-25T09:33:46;8.90;;;1.20;;
76113;SDS011;64845;53.086;5.834;2023-04-25T09:36:12;5.97;;;1.20;;
76113;SDS011;64845;53.086;5.834;2023-04-25T09:38:41;4.03;;;1.30;;
76113;SDS011;64845;53.086;5.834;2023-04-25T09:41:09;8.30;;;1.20;;
76113;SDS011;64845;53.086;5.834;2023-04-25T09:43:35;3.65;;;1.02;;
76113;SDS011;64845;53.086;5.834;2023-04-25T09:46:01;5.43;;;1.25;;
76113;SDS011;64845;53.086;5.834;2023-04-25T09:48:27;2.75;;;1.10;;
76113;SDS011;64845;53.086;5.834;2023-04-25T09:51:03;4.40;;;1.02;;
76113;SDS011;64845;53.086;5.834;2023-04-25T09:53:42;7.90;;;1.40;;
76113;SDS011;64845;53.086;5.834;2023-04-25T09:56:11;9.77;;;1.10;;
76113;SDS011;64845;53.086;5.834;2023-04-25T09:58:38;6.35;;;1.20;;
76113;SDS011;64845;53.086;5.834;2023-04-25T10:01:06;6.95;;;1.38;;
76113;SDS011;64845;53.086;5.834;2023-04-25T10:03:33;7.38;;;1.17;;
76113;SDS011;64845;53.086;5.834;2023-04-25T10:06:00;4.65;;;1.02;;
76113;SDS011;64845;53.086;5.834;2023-04-25T10:08:35;9.45;;;1.50;;
76113;SDS011;64845;53.086;5.834;2023-04-25T10:11:03;7.25;;;1.05;;
76113;SDS011;64845;53.086;5.834;2023-04-25T10:13:29;7.28;;;2.13;;
76113;SDS011;64845;53.086;5.834;2023-04-25T10:15:59;11.50;;;1.50;;
76113;SDS011;64845;53.086;5.834;2023-04-25T10:20:56;10.18;;;1.38;;
76113;SDS011;64845;53.086;5.834;2023-04-25T10:23:25;8.75;;;1.95;;
76113;SDS011;64845;53.086;5.834;2023-04-25T10:25:51;11.75;;;1.63;;
76113;SDS011;64845;53.086;5.834;2023-04-25T10:28:17;6.10;;;1.10;;
76113;SDS011;64845;53.086;5.834;2023-04-25T10:31:17;7.15;;;1.33;;
76113;SDS011;64845;53.086;5.834;2023-04-25T10:33:39;3.15;;;0.98;;
76113;SDS011;64845;53.086;5.834;2023-04-25T10:36:08;8.45;;;1.52;;
76113;SDS011;64845;53.086;5.834;2023-04-25T10:38:38;8.13;;;1.10;;
76113;SDS011;64845;53.086;5.834;2023-04-25T10:41:07;6.75;;;1.30;;
76113;SDS011;64845;53.086;5.834;2023-04-25T10:43:38;7.60;;;1.20;;
76113;SDS011;64845;53.086;5.834;2023-04-25T10:48:38;7.28;;;0.95;;
76113;SDS011;64845;53.086;5.834;2023-04-25T10:51:11;13.60;;;2.10;;
76113;SDS011;64845;53.086;5.834;2023-04-25T10:53:40;8.80;;;1.42;;
76113;SDS011;64845;53.086;5.834;2023-04-25T10:56:09;3.30;;;0.90;;
76113;SDS011;64845;53.086;5.834;2023-04-25T10:59:05;6.40;;;1.48;;
76113;SDS011;64845;53.086;5.834;2023-04-25T11:01:43;5.53;;;1.20;;
76113;SDS011;64845;53.086;5.834;2023-04-25T11:04:28;5.68;;;1.40;;
76113;SDS011;64845;53.086;5.834;2023-04-25T11:09:33;9.80;;;1.95;;
76113;SDS011;64845;53.086;5.834;2023-04-25T11:11:59;5.43;;;1.30;;
76113;SDS011;64845;53.086;5.834;2023-04-25T11:14:25;2.40;;;0.88;;
76113;SDS011;64845;53.086;5.834;2023-04-25T11:16:58;13.32;;;1.00;;
76113;SDS011;64845;53.086;5.834;2023-04-25T11:19:25;6.05;;;1.17;;
76113;SDS011;64845;53.086;5.834;2023-04-25T11:21:54;6.45;;;1.40;;
76113;SDS011;64845;53.086;5.834;2023-04-25T11:24:25;7.60;;;1.40;;
76113;SDS011;64845;53.086;5.834;2023-04-25T11:26:53;7.07;;;1.30;;
76113;SDS011;64845;53.086;5.834;2023-04-25T11:29:21;9.25;;;1.40;;
76113;SDS011;64845;53.086;5.834;2023-04-25T11:31:48;8.73;;;1.60;;
76113;SDS011;64845;53.086;5.834;2023-04-25T11:34:17;8.48;;;1.83;;
76113;SDS011;64845;53.086;5.834;2023-04-25T11:36:45;8.73;;;1.70;;
76113;SDS011;64845;53.086;5.834;2023-04-25T11:39:11;10.60;;;1.60;;
76113;SDS011;64845;53.086;5.834;2023-04-25T11:41:37;9.48;;;1.67;;
76113;SDS011;64845;53.086;5.834;2023-04-25T11:44:03;7.68;;;1.50;;
76113;SDS011;64845;53.086;5.834;2023-04-25T11:46:30;12.45;;;1.65;;
76113;SDS011;64845;53.086;5.834;2023-04-25T11:48:58;8.13;;;1.42;;
76113;SDS011;64845;53.086;5.834;2023-04-25T11:51:24;8.90;;;1.67;;
76113;SDS011;64845;53.086;5.834;2023-04-25T11:53:50;6.05;;;1.55;;
76113;SDS011;64845;53.086;5.834;2023-04-25T11:56:16;11.13;;;1.90;;
76113;SDS011;64845;53.086;5.834;2023-04-25T11:58:57;11.57;;;1.58;;
76113;SDS011;64845;53.086;5.834;2023-04-25T12:01:30;10.10;;;1.40;;
76113;SDS011;64845;53.086;5.834;2023-04-25T12:03:57;7.65;;;1.40;;
76113;SDS011;64845;53.086;5.834;2023-04-25T12:06:27;10.25;;;1.30;;
76113;SDS011;64845;53.086;5.834;2023-04-25T12:09:02;6.75;;;1.33;;
76113;SDS011;64845;53.086;5.834;2023-04-25T12:11:30;8.20;;;1.10;;
76113;SDS011;64845;53.086;5.834;2023-04-25T12:14:01;9.57;;;1.50;;
76113;SDS011;64845;53.086;5.834;2023-04-25T12:16:27;8.32;;;1.42;;
76113;SDS011;64845;53.086;5.834;2023-04-25T12:18:53;6.18;;;1.52;;
76113;SDS011;64845;53.086;5.834;2023-04-25T12:21:20;8.60;;;1.38;;
76113;SDS011;64845;53.086;5.834;2023-04-25T12:23:45;10.18;;;1.50;;
76113;SDS011;64845;53.086;5.834;2023-04-25T12:26:11;5.20;;;1.17;;
76113;SDS011;64845;53.086;5.834;2023-04-25T12:28:36;11.00;;;1.20;;
76113;SDS011;64845;53.086;5.834;2023-04-25T12:33:32;8.05;;;1.30;;
76113;SDS011;64845;53.086;5.834;2023-04-25T12:35:58;12.27;;;1.60;;
76113;SDS011;64845;53.086;5.834;2023-04-25T12:38:28;8.30;;;1.70;;
76113;SDS011;64845;53.086;5.834;2023-04-25T12:40:55;6.10;;;1.40;;
76113;SDS011;64845;53.086;5.834;2023-04-25T12:43:21;5.88;;;1.48;;
76113;SDS011;64845;53.086;5.834;2023-04-25T12:45:48;11.50;;;1.40;;
76113;SDS011;64845;53.086;5.834;2023-04-25T12:48:15;7.15;;;1.23;;
76113;SDS011;64845;53.086;5.834;2023-04-25T12:50:41;8.55;;;1.60;;
76113;SDS011;64845;53.086;5.834;2023-04-25T12:53:07;10.05;;;1.83;;
76113;SDS011;64845;53.086;5.834;2023-04-25T12:55:32;11.65;;;1.90;;
76113;SDS011;64845;53.086;5.834;2023-04-25T12:57:58;8.75;;;1.75;;
76113;SDS011;64845;53.086;5.834;2023-04-25T13:00:23;11.52;;;1.70;;
76113;SDS011;64845;53.086;5.834;2023-04-25T13:02:49;5.97;;;1.52;;
76113;SDS011;64845;53.086;5.834;2023-04-25T13:05:15;4.10;;;1.45;;
76113;SDS011;64845;53.086;5.834;2023-04-25T13:07:40;3.42;;;1.20;;
76113;SDS011;64845;53.086;5.834;2023-04-25T13:10:06;7.15;;;1.42;;
76113;SDS011;64845;53.086;5.834;2023-04-25T13:12:32;8.10;;;1.63;;
76113;SDS011;64845;53.086;5.834;2023-04-25T13:14:58;6.35;;;1.75;;
76113;SDS011;64845;53.086;5.834;2023-04-25T13:17:23;6.32;;;1.55;;
76113;SDS011;64845;53.086;5.834;2023-04-25T13:19:49;15.15;;;2.03;;
76113;SDS011;64845;53.086;5.834;2023-04-25T13:22:14;10.52;;;2.00;;
76113;SDS011;64845;53.086;5.834;2023-04-25T13:24:41;9.15;;;1.80;;
76113;SDS011;64845;53.086;5.834;2023-04-25T13:27:07;9.95;;;1.60;;
76113;SDS011;64845;53.086;5.834;2023-04-25T13:29:33;11.00;;;2.13;;
76113;SDS011;64845;53.086;5.834;2023-04-25T13:32:00;6.20;;;1.48;;
76113;SDS011;64845;53.086;5.834;2023-04-25T13:34:26;7.05;;;1.30;;
76113;SDS011;64845;53.086;5.834;2023-04-25T13:36:51;6.38;;;1.20;;
76113;SDS011;64845;53.086;5.834;2023-04-25T13:39:17;8.00;;;1.48;;
76113;SDS011;64845;53.086;5.834;2023-04-25T13:41:42;13.00;;;1.80;;
76113;SDS011;64845;53.086;5.834;2023-04-25T13:44:08;10.32;;;1.88;;
76113;SDS011;64845;53.086;5.834;2023-04-25T13:46:33;7.03;;;1.50;;
76113;SDS011;64845;53.086;5.834;2023-04-25T13:48:58;5.90;;;1.45;;
76113;SDS011;64845;53.086;5.834;2023-04-25T13:51:24;11.20;;;1.85;;
76113;SDS011;64845;53.086;5.834;2023-04-25T13:53:51;9.73;;;1.65;;
76113;SDS011;64845;53.086;5.834;2023-04-25T13:56:16;6.82;;;1.48;;
76113;SDS011;64845;53.086;5.834;2023-04-25T13:58:44;11.02;;;1.50;;
76113;SDS011;64845;53.086;5.834;2023-04-25T14:01:10;8.48;;;1.63;;
76113;SDS011;64845;53.086;5.834;2023-04-25T14:03:35;8.32;;;1.52;;
76113;SDS011;64845;53.086;5.834;2023-04-25T14:06:01;6.60;;;1.27;;
76113;SDS011;64845;53.086;5.834;2023-04-25T14:08:26;11.65;;;1.75;;
76113;SDS011;64845;53.086;5.834;2023-04-25T14:10:52;11.32;;;2.80;;
76113;SDS011;64845;53.086;5.834;2023-04-25T14:13:17;13.32;;;2.17;;
76113;SDS011;64845;53.086;5.834;2023-04-25T14:15:43;9.05;;;1.17;;
76113;SDS011;64845;53.086;5.834;2023-04-25T14:18:09;6.85;;;1.75;;
76113;SDS011;64845;53.086;5.834;2023-04-25T14:20:34;11.75;;;1.98;;
76113;SDS011;64845;53.086;5.834;2023-04-25T14:22:59;8.10;;;1.50;;
76113;SDS011;64845;53.086;5.834;2023-04-25T14:25:25;14.25;;;2.22;;
76113;SDS011;64845;53.086;5.834;2023-04-25T14:27:50;15.60;;;2.30;;
76113;SDS011;64845;53.086;5.834;2023-04-25T14:30:16;13.60;;;1.98;;
76113;SDS011;64845;53.086;5.834;2023-04-25T14:32:43;7.70;;;1.55;;
76113;SDS011;64845;53.086;5.834;2023-04-25T14:35:08;14.15;;;1.70;;
76113;SDS011;64845;53.086;5.834;2023-04-25T14:37:35;10.30;;;1.73;;
76113;SDS011;64845;53.086;5.834;2023-04-25T14:40:00;12.02;;;1.60;;
76113;SDS011;64845;53.086;5.834;2023-04-25T14:42:26;7.60;;;1.85;;
76113;SDS011;64845;53.086;5.834;2023-04-25T14:44:52;13.93;;;1.95;;
76113;SDS011;64845;53.086;5.834;2023-04-25T14:47:17;9.63;;;2.08;;
76113;SDS011;64845;53.086;5.834;2023-04-25T14:49:43;6.78;;;1.65;;